Time;durP1;ratioP1;P1;durP2;ratioP2;P2;SDS_P1;SDS_P2;PMS_P1;PMS_P2;Temp;Humidity;BMP_temperature;BMP_pressure;BME280_temperature;BME280_humidity;BME280_pressure;Samples;Min_cycle;Max_cycle;Signal;HPM_P1;HPM_P2
2022/12/03 00:00:23;;;;;;;7.82;3.13;;;;;;;13.49;100.00;101835.38;2102391;28;20036;-79
2022/12/03 00:01:46;;;;;;;9.90;5.65;;;;;;;13.47;100.00;101832.69;2101548;28;20059;-79
2022/12/03 00:03:10;;;;;;;11.98;6.78;;;;;;;13.48;100.00;101836.25;2094744;28;20062;-79
2022/12/03 00:04:33;;;;;;;6.05;3.03;;;;;;;13.46;100.00;101841.50;2092436;28;20044;-79
2022/12/03 00:05:56;;;;;;;6.57;2.92;;;;;;;13.47;100.00;101834.44;2092479;28;20488;-79
2022/12/03 00:07:18;;;;;;;6.20;2.50;;;;;;;13.45;100.00;101837.09;2094764;28;20524;-80
2022/12/03 00:08:41;;;;;;;5.35;2.55;;;;;;;13.43;100.00;101830.84;2100822;28;20047;-77
2022/12/03 00:10:08;;;;;;;28.08;17.27;;;;;;;13.41;100.00;101829.91;2091216;28;20131;-79
2022/12/03 00:11:30;;;;;;;14.60;7.65;;;;;;;13.40;100.00;101836.06;2095917;28;20048;-79
2022/12/03 00:12:53;;;;;;;4.72;2.67;;;;;;;13.39;100.00;101830.75;2097439;28;20072;-79
2022/12/03 00:14:14;;;;;;;7.82;3.17;;;;;;;13.40;100.00;101832.53;2095827;28;20041;-79
2022/12/03 00:15:37;;;;;;;9.85;4.70;;;;;;;13.40;100.00;101836.06;2089382;28;20086;-79
2022/12/03 00:16:59;;;;;;;9.82;5.32;;;;;;;13.39;100.00;101834.28;2092579;28;20037;-79
2022/12/03 00:18:23;;;;;;;9.25;3.75;;;;;;;13.37;100.00;101838.69;2094963;28;20067;-79
2022/12/03 00:19:46;;;;;;;19.98;10.18;;;;;;;13.36;100.00;101834.22;2097505;28;20049;-79
2022/12/03 00:21:09;;;;;;;8.82;4.18;;;;;;;13.36;100.00;101831.56;2086532;28;20111;-79
2022/12/03 00:22:30;;;;;;;10.00;3.97;;;;;;;13.36;100.00;101838.63;2091817;28;20093;-79
2022/12/03 00:23:53;;;;;;;20.38;12.05;;;;;;;13.35;100.00;101834.19;2094347;28;20059;-78
2022/12/03 00:25:16;;;;;;;6.65;2.45;;;;;;;13.34;100.00;101838.59;2090693;28;20052;-79
2022/12/03 00:26:37;;;;;;;3.28;2.13;;;;;;;13.33;100.00;101836.81;2087003;28;20037;-79
2022/12/03 00:28:00;;;;;;;17.85;10.13;;;;;;;13.32;100.00;101837.69;2092031;28;20048;-80
2022/12/03 00:29:23;;;;;;;8.02;3.15;;;;;;;13.32;100.00;101837.69;2094988;28;20044;-79
2022/12/03 00:30:44;;;;;;;10.70;5.28;;;;;;;13.29;100.00;101842.91;2094503;28;20062;-78
2022/12/03 00:32:07;;;;;;;9.43;3.38;;;;;;;13.27;100.00;101836.66;2095902;28;20091;-79
2022/12/03 00:33:31;;;;;;;16.77;10.60;;;;;;;13.27;100.00;101839.31;2094794;28;20079;-79
2022/12/03 00:34:53;;;;;;;15.52;8.05;;;;;;;13.24;100.00;101835.72;2095944;28;20048;-79
2022/12/03 00:36:15;;;;;;;24.38;13.57;;;;;;;13.20;100.00;101834.75;2097426;28;20416;-79
2022/12/03 00:37:37;;;;;;;17.02;9.38;;;;;;;13.19;100.00;101832.97;2096988;28;20062;-80
2022/12/03 00:38:59;;;;;;;16.23;8.27;;;;;;;13.20;100.00;101845.34;2086577;28;20063;-78
2022/12/03 00:40:22;;;;;;;15.98;8.15;;;;;;;13.21;100.00;101846.25;2092426;28;20060;-80
2022/12/03 00:41:44;;;;;;;13.25;8.00;;;;;;;13.19;100.00;101843.59;2090490;28;20032;-80
2022/12/03 00:43:06;;;;;;;15.00;5.95;;;;;;;13.16;100.00;101835.56;2100212;28;20059;-79
2022/12/03 00:44:29;;;;;;;17.92;10.00;;;;;;;13.16;100.00;101840.84;2099382;28;20377;-79
2022/12/03 00:45:52;;;;;;;9.07;5.95;;;;;;;13.15;100.00;101836.41;2086830;28;20652;-79
2022/12/03 00:47:14;;;;;;;7.15;3.58;;;;;;;13.14;100.00;101837.25;2083928;28;20059;-79
2022/12/03 00:48:37;;;;;;;16.50;9.63;;;;;;;13.16;100.00;101847.06;2083915;28;20076;-79
2022/12/03 00:50:00;;;;;;;8.18;3.13;;;;;;;13.16;100.00;101847.06;2090852;28;20695;-78
2022/12/03 00:51:21;;;;;;;8.10;3.47;;;;;;;13.16;100.00;101851.47;2095816;28;20058;-79
2022/12/03 00:52:44;;;;;;;5.45;2.90;;;;;;;13.15;100.00;101845.25;2086220;28;20394;-79
2022/12/03 00:54:07;;;;;;;11.98;6.47;;;;;;;13.18;100.00;101841.78;2102094;28;20113;-79
2022/12/03 00:55:28;;;;;;;17.13;10.00;;;;;;;13.18;100.00;101839.16;2097338;28;20052;-79
2022/12/03 00:56:51;;;;;;;15.48;7.82;;;;;;;13.17;100.00;101837.34;2092086;28;20601;-79
2022/12/03 00:58:14;;;;;;;14.95;6.97;;;;;;;13.18;100.00;101844.44;2085389;28;20053;-79
2022/12/03 00:59:36;;;;;;;10.68;5.00;;;;;;;13.19;100.00;101840.94;2092156;28;20048;-79
2022/12/03 01:00:59;;;;;;;10.50;6.05;;;;;;;13.20;100.00;101849.75;2097915;28;20036;-78
2022/12/03 01:02:21;;;;;;;20.33;11.70;;;;;;;13.20;100.00;101848.00;2088369;28;20037;-79
2022/12/03 01:03:45;;;;;;;22.08;15.95;;;;;;;13.20;100.00;101848.00;2095608;28;20056;-79
2022/12/03 01:05:08;;;;;;;17.30;7.93;;;;;;;13.21;100.00;101844.50;2094329;28;20045;-79
2022/12/03 01:06:30;;;;;;;10.73;6.05;;;;;;;13.21;100.00;101841.84;2100492;28;20040;-79
2022/12/03 01:07:52;;;;;;;8.50;4.65;;;;;;;13.22;100.00;101846.28;2098085;28;20064;-81
2022/12/03 01:09:15;;;;;;;15.90;8.63;;;;;;;13.23;100.00;101836.59;2095509;28;20049;-79
2022/12/03 01:10:37;;;;;;;9.45;4.30;;;;;;;13.22;100.00;101833.03;2102604;28;20462;-80
2022/12/03 01:11:59;;;;;;;26.70;15.23;;;;;;;13.23;100.00;101834.81;2102828;28;20047;-79
2022/12/03 01:13:21;;;;;;;19.08;9.85;;;;;;;13.22;100.00;101837.44;2094288;28;20541;-80
2022/12/03 01:14:44;;;;;;;8.43;4.22;;;;;;;13.21;100.00;101833.00;2098265;28;20153;-79
2022/12/03 01:16:06;;;;;;;14.18;6.68;;;;;;;13.22;100.00;101840.09;2102926;28;20055;-79
2022/12/03 01:17:28;;;;;;;8.75;3.28;;;;;;;13.21;100.00;101831.25;2084927;28;20048;-79
2022/12/03 01:18:51;;;;;;;10.45;3.58;;;;;;;13.23;100.00;101839.22;2088981;28;20056;-78
2022/12/03 01:20:14;;;;;;;8.75;4.90;;;;;;;13.23;100.00;101834.81;2091964;28;20052;-79
2022/12/03 01:21:36;;;;;;;8.90;3.65;;;;;;;13.23;100.00;101829.53;2088561;28;20044;-79
2022/12/03 01:22:58;;;;;;;;;;;;;;;13.18;100.00;101825.88;2083804;28;20144;-79
2022/12/03 01:24:21;;;;;;;8.30;4.07;;;;;;;13.18;100.00;101827.63;2091965;28;20027;-79
2022/12/03 01:25:44;;;;;;;15.93;9.02;;;;;;;13.19;100.00;101832.09;2095310;28;20037;-79
2022/12/03 01:27:07;;;;;;;7.65;3.33;;;;;;;13.21;100.00;101828.59;2094542;28;20516;-80
2022/12/03 01:28:33;;;;;;;9.35;4.40;;;;;;;13.21;100.00;101828.59;2101115;28;20047;-80
2022/12/03 01:29:56;;;;;;;15.88;8.80;;;;;;;13.21;100.00;101833.88;2102583;28;20056;-80
2022/12/03 01:32:57;;;;;;;14.73;8.65;;;;;;;13.16;100.00;101831.16;2095933;28;20047;-79
2022/12/03 01:34:21;;;;;;;12.82;7.07;;;;;;;13.15;100.00;101826.69;2099745;28;20056;-79
2022/12/03 01:35:43;;;;;;;11.68;5.45;;;;;;;13.15;100.00;101826.69;2094394;28;20068;-78
2022/12/03 01:37:05;;;;;;;6.97;2.67;;;;;;;13.15;100.00;101826.69;2099867;28;20040;-78
2022/12/03 01:38:28;;;;;;;8.82;2.75;;;;;;;13.17;100.00;101832.03;2102514;28;20056;-78
2022/12/03 01:39:51;;;;;;;6.53;2.60;;;;;;;13.14;100.00;101830.22;2105204;28;20036;-78
2022/12/03 01:41:13;;;;;;;5.55;2.60;;;;;;;13.13;100.00;101823.09;2094397;28;20087;-79
2022/12/03 01:42:39;;;;;;;6.70;2.55;;;;;;;13.13;100.00;101819.56;2091359;28;20417;-78
2022/12/03 01:44:03;;;;;;;6.43;3.05;;;;;;;13.11;100.00;101818.63;2100278;28;20546;-79
2022/12/03 01:45:26;;;;;;;11.57;5.00;;;;;;;13.07;100.00;101804.38;2094597;28;20070;-79
2022/12/03 01:46:50;;;;;;;17.85;11.80;;;;;;;13.06;100.00;101805.25;2100062;28;20036;-80
2022/12/03 01:48:15;;;;;;;10.68;5.82;;;;;;;13.07;100.00;101808.78;2105379;28;20387;-78
2022/12/03 01:49:43;;;;;;;12.32;6.50;;;;;;;13.07;100.00;101814.09;2102897;28;20059;-79
2022/12/03 01:51:05;;;;;;;9.98;4.60;;;;;;;13.08;100.00;101811.47;2094830;28;20049;-79
2022/12/03 01:52:32;;;;;;;13.18;6.43;;;;;;;13.10;100.00;101817.72;2099726;28;20044;-78
2022/12/03 01:53:55;;;;;;;11.52;4.88;;;;;;;13.09;100.00;101812.38;2098672;28;20036;-78
2022/12/03 01:55:21;;;;;;;5.72;3.25;;;;;;;13.12;100.00;101804.50;2102519;28;20698;-79
2022/12/03 01:56:43;;;;;;;9.20;4.05;;;;;;;13.14;100.00;101808.09;2103039;28;20443;-79
2022/12/03 01:58:06;;;;;;;5.57;3.10;;;;;;;13.16;100.00;101795.78;2093964;28;20041;-79
2022/12/03 01:59:34;;;;;;;6.90;2.80;;;;;;;13.18;100.00;101798.47;2088641;28;20257;-80
2022/12/03 02:00:58;;;;;;;5.05;2.47;;;;;;;13.19;100.00;101806.47;2090999;28;20052;-80
2022/12/03 02:02:24;;;;;;;7.20;2.78;;;;;;;13.21;100.00;101804.72;2094441;28;20083;-79
2022/12/03 02:03:47;;;;;;;5.85;2.63;;;;;;;13.21;100.00;101807.38;2092602;28;20600;-80
2022/12/03 02:05:17;;;;;;;9.75;3.40;;;;;;;13.21;100.00;101795.88;2086336;28;20438;-80
2022/12/03 02:06:39;;;;;;;7.78;3.33;;;;;;;13.17;100.00;101794.91;2100384;28;20085;-79
2022/12/03 02:08:02;;;;;;;7.93;4.60;;;;;;;13.11;100.00;101794.75;2102621;28;20502;-79
2022/12/03 02:09:23;;;;;;;9.15;4.40;;;;;;;13.08;100.00;101794.69;2101274;28;20055;-79
2022/12/03 02:10:46;;;;;;;18.75;9.57;;;;;;;13.08;100.00;101786.72;2095510;28;20040;-79
2022/12/03 02:12:08;;;;;;;14.85;7.97;;;;;;;13.09;100.00;101799.13;2093527;28;20059;-79
2022/12/03 02:13:31;;;;;;;10.35;5.20;;;;;;;13.11;100.00;101795.66;2093609;28;20072;-79
2022/12/03 02:14:54;;;;;;;13.15;7.60;;;;;;;13.14;100.00;101803.69;2096388;28;20396;-78
2022/12/03 02:16:17;;;;;;;11.02;6.05;;;;;;;13.16;100.00;101798.44;2077628;28;20037;-78
2022/12/03 02:17:40;;;;;;;8.70;4.40;;;;;;;13.19;100.00;101795.88;2089135;28;20427;-78
2022/12/03 02:19:03;;;;;;;17.08;9.90;;;;;;;13.22;100.00;101798.56;2091504;28;20068;-78
2022/12/03 02:20:27;;;;;;;9.45;3.30;;;;;;;13.24;100.00;101794.19;2090574;28;20048;-79
2022/12/03 02:21:58;;;;;;;10.90;3.58;;;;;;;13.28;100.00;101798.69;2091605;28;20055;-79
2022/12/03 02:23:31;;;;;;;6.00;2.97;;;;;;;13.34;100.00;101797.91;2095533;28;20055;-78
2022/12/03 02:24:59;;;;;;;8.63;3.25;;;;;;;13.37;100.00;101801.53;2095237;28;20051;-77
2022/12/03 02:26:22;;;;;;;8.43;3.08;;;;;;;13.42;100.00;101797.22;2092641;28;20060;-77
2022/12/03 02:27:46;;;;;;;7.32;3.03;;;;;;;13.47;100.00;101802.63;2098845;28;20062;-78
2022/12/03 02:29:07;;;;;;;8.55;2.97;;;;;;;13.49;100.00;101793.84;2101203;28;20519;-78
2022/12/03 02:30:31;;;;;;;11.10;4.15;;;;;;;13.52;100.00;101787.72;2101050;28;20040;-78
2022/12/03 02:31:54;;;;;;;8.60;4.10;;;;;;;13.50;100.00;101786.78;2093866;28;20425;-78
2022/12/03 02:33:15;;;;;;;7.85;3.33;;;;;;;13.48;100.00;101789.38;2099917;28;20475;-78
2022/12/03 02:34:40;;;;;;;6.13;2.70;;;;;;;13.48;100.00;101793.78;2091829;28;20165;-78
2022/12/03 02:36:02;;;;;;;7.05;2.90;;;;;;;13.47;100.00;101795.56;2100444;28;20051;-78
2022/12/03 02:37:30;;;;;;;4.40;2.90;;;;;;;13.48;100.00;101799.09;2100404;28;20416;-78
2022/12/03 02:38:51;;;;;;;11.25;4.72;;;;;;;13.49;100.00;101796.50;2111184;28;20039;-78
2022/12/03 02:40:18;;;;;;;7.28;4.10;;;;;;;13.50;100.00;101789.44;2094895;28;20087;-78
2022/12/03 02:43:23;;;;;;;8.00;3.08;;;;;;;13.46;100.00;101785.81;2095546;28;20045;-79
2022/12/03 02:44:45;;;;;;;9.93;3.28;;;;;;;13.45;100.00;101789.34;2099999;28;20052;-78
2022/12/03 02:46:09;;;;;;;10.23;4.50;;;;;;;13.44;100.00;101789.31;2099542;28;20369;-79
2022/12/03 02:47:32;;;;;;;9.55;4.32;;;;;;;13.41;100.00;101790.13;2088621;28;20075;-79
2022/12/03 02:48:55;;;;;;;7.95;4.00;;;;;;;13.43;100.00;101787.50;2100108;28;20554;-79
2022/12/03 02:50:22;;;;;;;10.77;3.92;;;;;;;13.47;100.00;101794.66;2093725;28;20087;-78
2022/12/03 02:51:44;;;;;;;8.32;4.20;;;;;;;13.50;100.00;101789.44;2095634;28;20071;-78
2022/12/03 02:53:11;;;;;;;9.10;4.68;;;;;;;13.56;100.00;101789.53;2093582;28;20123;-78
2022/12/03 02:54:33;;;;;;;8.35;3.40;;;;;;;13.62;100.00;101789.66;2101032;28;20538;-79
2022/12/03 02:55:59;;;;;;;10.68;4.70;;;;;;;13.68;100.00;101786.22;2088104;28;20048;-78
2022/12/03 02:57:22;;;;;;;7.25;3.45;;;;;;;13.72;100.00;101786.31;2083426;28;20049;-78
2022/12/03 02:58:47;;;;;;;7.10;3.42;;;;;;;13.78;100.00;101785.56;2108230;28;20043;-78
2022/12/03 03:00:11;;;;;;;7.63;3.80;;;;;;;13.80;100.00;101781.16;2089380;28;20484;-79
2022/12/03 03:01:35;;;;;;;10.55;6.45;;;;;;;13.81;100.00;101775.88;2094233;28;20045;-79
2022/12/03 03:02:57;;;;;;;10.80;4.20;;;;;;;13.84;100.00;101783.03;2099783;28;20535;-79
2022/12/03 03:04:21;;;;;;;10.90;5.28;;;;;;;13.85;100.00;101783.03;2085302;28;20049;-79
2022/12/03 03:05:44;;;;;;;8.27;3.30;;;;;;;13.87;100.00;101780.41;2100011;28;20139;-79
2022/12/03 03:07:07;;;;;;;6.72;2.92;;;;;;;13.89;100.00;101784.00;2088498;28;20053;-79
2022/12/03 03:08:31;;;;;;;7.65;2.88;;;;;;;13.92;100.00;101786.69;2088148;28;20057;-80
2022/12/03 03:09:52;;;;;;;6.60;2.58;;;;;;;13.97;100.00;101787.69;2091386;28;20056;-79
2022/12/03 03:11:15;;;;;;;7.25;2.60;;;;;;;13.99;100.00;101785.94;2097671;28;20052;-79
2022/12/03 03:12:39;;;;;;;6.18;2.47;;;;;;;14.02;100.00;101787.75;2093575;28;20028;-80
2022/12/03 03:14:02;;;;;;;7.68;2.97;;;;;;;14.03;100.00;101782.47;2096985;28;20050;-79
2022/12/03 03:15:25;;;;;;;10.65;4.65;;;;;;;14.03;100.00;101778.94;2102409;28;20052;-80
2022/12/03 03:16:54;;;;;;;5.45;2.72;;;;;;;14.04;100.00;101788.69;2087916;28;20517;-79
2022/12/03 03:18:17;;;;;;;7.50;2.63;;;;;;;14.03;100.00;101785.13;2084715;28;20090;-79
2022/12/03 03:19:39;;;;;;;4.63;2.70;;;;;;;14.04;100.00;101791.34;2088702;28;20111;-79
2022/12/03 03:21:01;;;;;;;7.32;3.05;;;;;;;14.05;100.00;101790.44;2092968;28;20045;-80
2022/12/03 03:22:32;;;;;;;8.57;3.05;;;;;;;14.03;100.00;101798.41;2093414;28;20060;-79
2022/12/03 03:23:54;;;;;;;12.30;5.07;;;;;;;14.01;100.00;101788.63;2098856;28;20048;-79
2022/12/03 03:25:21;;;;;;;11.23;5.80;;;;;;;13.98;100.00;101790.34;2094208;28;20040;-79
2022/12/03 03:26:43;;;;;;;28.98;15.32;;;;;;;13.98;100.00;101788.59;2094115;28;20045;-78
2022/12/03 03:28:07;;;;;;;;;;;;;;;13.93;100.00;101789.38;2091685;28;20041;-78
2022/12/03 03:29:31;;;;;;;11.48;4.70;;;;;;;13.98;100.00;101791.25;2089852;28;19978;-79
2022/12/03 03:30:53;;;;;;;9.30;4.90;;;;;;;14.00;100.00;101790.38;2082791;28;20118;-78
2022/12/03 03:32:16;;;;;;;10.75;4.10;;;;;;;14.04;100.00;101794.00;2083021;28;20094;-79
2022/12/03 03:33:38;;;;;;;9.10;3.60;;;;;;;14.07;100.00;101800.25;2084614;28;20068;-80
2022/12/03 03:35:02;;;;;;;8.55;3.92;;;;;;;14.11;100.00;101795.91;2092690;28;20520;-79
2022/12/03 03:36:26;;;;;;;11.90;4.00;;;;;;;14.13;100.00;101794.16;2089658;28;20060;-80
2022/12/03 03:37:48;;;;;;;9.60;4.78;;;;;;;14.13;100.00;101800.34;2084556;28;20048;-80
2022/12/03 03:39:12;;;;;;;8.02;3.83;;;;;;;14.14;100.00;101796.84;2092514;28;20045;-79
2022/12/03 03:40:34;;;;;;;5.07;2.72;;;;;;;14.17;100.00;101801.31;2088686;28;20044;-80
2022/12/03 03:41:56;;;;;;;;;;;;;;;14.15;100.00;101795.97;2092881;28;20151;-79
2022/12/03 03:43:21;;;;;;;6.53;2.90;;;;;;;14.20;100.00;101810.22;2095238;28;19920;-79
2022/12/03 03:44:44;;;;;;;8.57;3.00;;;;;;;14.25;100.00;101804.97;2095565;28;20052;-79
2022/12/03 03:46:06;;;;;;;6.40;2.80;;;;;;;14.26;100.00;101799.69;2095406;28;20044;-79
2022/12/03 03:47:30;;;;;;;8.32;2.80;;;;;;;14.27;100.00;101798.84;2095114;28;20048;-80
2022/12/03 03:48:53;;;;;;;5.93;2.83;;;;;;;14.27;100.00;101801.50;2095296;28;20496;-80
2022/12/03 03:50:16;;;;;;;6.13;3.35;;;;;;;14.26;100.00;101793.50;2089627;28;20091;-83
2022/12/03 03:51:39;;;;;;;5.40;3.00;;;;;;;14.24;100.00;101790.81;2092711;28;20075;-79
2022/12/03 03:53:05;;;;;;;8.05;4.88;;;;;;;14.22;100.00;101795.22;2095353;28;20076;-80
2022/12/03 03:54:27;;;;;;;8.52;3.45;;;;;;;14.22;100.00;101804.94;2103517;28;20138;-79
2022/12/03 03:55:49;;;;;;;9.60;4.05;;;;;;;14.23;100.00;101804.09;2103514;28;20044;-79
2022/12/03 03:57:12;;;;;;;;;;;;;;;14.20;100.00;101811.97;2094804;28;20676;-80
2022/12/03 03:58:37;;;;;;;9.65;4.90;;;;;;;14.22;100.00;101807.59;2091688;28;20316;-79
2022/12/03 03:59:59;;;;;;;15.80;7.70;;;;;;;14.25;100.00;101815.59;2092767;28;20388;-80
2022/12/03 04:01:24;;;;;;;23.15;13.10;;;;;;;14.25;100.00;101815.59;2100088;28;20626;-79
2022/12/03 04:02:47;;;;;;;16.48;6.72;;;;;;;14.25;100.00;101818.25;2095026;28;20036;-80
2022/12/03 04:04:19;;;;;;;17.50;7.50;;;;;;;14.26;100.00;101818.28;2109105;28;20518;-78
2022/12/03 04:05:40;;;;;;;16.83;9.93;;;;;;;14.29;100.00;101817.47;2103190;28;20570;-79
2022/12/03 04:07:03;;;;;;;13.75;6.85;;;;;;;14.30;100.00;101813.94;2099579;28;20095;-80
2022/12/03 04:08:24;;;;;;;9.57;5.35;;;;;;;14.34;100.00;101815.78;2094410;28;20056;-80
2022/12/03 04:09:47;;;;;;;7.10;3.13;;;;;;;14.35;100.00;101818.47;2100802;28;20064;-80
2022/12/03 04:12:54;;;;;;;6.35;3.22;;;;;;;14.32;100.00;101818.41;2099181;28;20054;-80
2022/12/03 04:14:19;;;;;;;5.93;3.17;;;;;;;14.30;100.00;101814.84;2104196;28;20036;-79
2022/12/03 04:15:40;;;;;;;7.63;3.30;;;;;;;14.29;100.00;101814.81;2096716;28;20138;-80
2022/12/03 04:17:03;;;;;;;6.05;3.05;;;;;;;14.28;100.00;101818.31;2091632;28;20040;-79
2022/12/03 04:18:42;;;;;;;5.68;3.40;;;;;;;14.27;100.00;101821.84;2100836;28;20079;-79
2022/12/03 04:20:06;;;;;;;10.50;5.40;;;;;;;14.26;100.00;101826.25;2113846;28;20040;-79
2022/12/03 04:23:07;;;;;;;7.60;3.15;;;;;;;14.26;100.00;101828.03;2103626;28;20048;-79
2022/12/03 04:24:30;;;;;;;8.07;3.55;;;;;;;14.26;100.00;101828.03;2095026;28;20036;-79
2022/12/03 04:29:11;;;;;;;6.15;3.22;;;;;;;14.24;100.00;101837.75;2088759;28;20124;-79
2022/12/03 04:30:36;;;;;;;6.80;3.58;;;;;;;14.26;100.00;101833.34;2092483;28;20157;-80
2022/12/03 04:36:58;;;;;;;11.23;3.53;;;;;;;14.28;100.00;101840.47;2101180;28;20098;-80
2022/12/03 04:38:21;;;;;;;6.90;3.80;;;;;;;14.29;100.00;101842.25;2094448;28;20047;-79
2022/12/03 04:39:43;;;;;;;7.22;4.07;;;;;;;14.30;100.00;101841.41;2091243;28;20455;-79
2022/12/03 04:41:05;;;;;;;6.60;3.55;;;;;;;14.31;100.00;101840.50;2092157;28;20055;-79
2022/12/03 04:42:28;;;;;;;8.18;3.67;;;;;;;14.31;100.00;101843.16;2092392;28;20451;-78
2022/12/03 04:45:32;;;;;;;7.65;3.53;;;;;;;14.29;100.00;101850.25;2097434;28;20044;-80
2022/12/03 04:46:55;;;;;;;8.77;4.88;;;;;;;14.29;100.00;101844.91;2096955;28;20578;-80
2022/12/03 04:48:17;;;;;;;11.48;4.00;;;;;;;14.25;100.00;101842.16;2100993;28;20554;-80
2022/12/03 04:49:41;;;;;;;8.07;3.58;;;;;;;14.24;100.00;101841.25;2094126;28;20033;-80
2022/12/03 04:51:04;;;;;;;9.75;3.60;;;;;;;14.25;100.00;101847.47;2097524;28;20149;-80
2022/12/03 04:52:27;;;;;;;6.38;3.45;;;;;;;14.24;100.00;101845.72;2086318;28;20045;-80
2022/12/03 04:53:48;;;;;;;15.93;7.90;;;;;;;14.27;100.00;101851.06;2086877;28;20040;-80
2022/12/03 04:55:11;;;;;;;12.93;9.88;;;;;;;14.28;100.00;101852.84;2086525;28;20111;-81
2022/12/03 04:56:32;;;;;;;10.00;5.45;;;;;;;14.29;100.00;101849.34;2095179;28;20063;-80
2022/12/03 04:57:55;;;;;;;6.30;3.78;;;;;;;14.31;100.00;101855.56;2094689;28;20052;-79
2022/12/03 04:59:16;;;;;;;6.55;3.50;;;;;;;14.31;100.00;101853.78;2110394;28;20089;-80
2022/12/03 05:00:39;;;;;;;6.70;4.07;;;;;;;14.32;100.00;101855.59;2103818;28;20036;-80
2022/12/03 05:02:05;;;;;;;8.70;4.20;;;;;;;14.33;100.00;101856.47;2094478;28;20048;-80
2022/12/03 05:03:28;;;;;;;10.40;3.97;;;;;;;14.34;100.00;101859.19;2094988;28;20131;-80
2022/12/03 05:04:51;;;;;;;8.52;4.18;;;;;;;14.37;100.00;101866.31;2094472;28;20048;-81
2022/12/03 05:06:12;;;;;;;7.65;4.03;;;;;;;14.38;100.00;101860.13;2094789;28;20191;-80
2022/12/03 05:07:35;;;;;;;11.35;3.58;;;;;;;14.39;100.00;101861.94;2101605;28;20482;-80
2022/12/03 05:08:59;;;;;;;10.18;5.03;;;;;;;14.42;100.00;101866.41;2098791;28;20037;-80
2022/12/03 05:10:21;;;;;;;20.35;9.80;;;;;;;14.42;100.00;101864.66;2094926;28;20056;-78
2022/12/03 05:11:44;;;;;;;21.95;9.57;;;;;;;14.43;100.00;101869.13;2102679;28;20044;-79
2022/12/03 05:13:05;;;;;;;15.57;8.18;;;;;;;14.46;100.00;101868.25;2088339;28;20048;-80
2022/12/03 05:14:28;;;;;;;16.85;6.43;;;;;;;14.47;100.00;101864.72;2083746;28;20052;-80
2022/12/03 05:15:49;;;;;;;11.07;5.40;;;;;;;14.48;100.00;101872.75;2091977;28;20083;-80
2022/12/03 05:17:14;;;;;;;10.98;5.30;;;;;;;14.52;100.00;101873.66;2101782;28;20047;-79
2022/12/03 05:18:35;;;;;;;11.57;4.28;;;;;;;14.53;100.00;101881.69;2090229;28;20036;-80
2022/12/03 05:21:37;;;;;;;8.38;4.20;;;;;;;14.57;100.00;101877.31;2088366;28;20080;-80
2022/12/03 05:22:59;;;;;;;11.32;5.40;;;;;;;14.61;100.00;101871.19;2101676;28;20055;-80
2022/12/03 05:24:22;;;;;;;11.38;6.25;;;;;;;14.64;100.00;101873.88;2102649;28;20044;-81
2022/12/03 05:25:43;;;;;;;11.90;6.55;;;;;;;14.67;100.00;101876.59;2101254;28;20048;-80
2022/12/03 05:27:06;;;;;;;15.75;7.13;;;;;;;14.71;100.00;101873.09;2103055;28;20048;-80
2022/12/03 05:28:27;;;;;;;13.60;7.03;;;;;;;14.73;100.00;101872.28;2111266;28;20036;-80
2022/12/03 05:29:50;;;;;;;20.02;11.05;;;;;;;14.77;100.00;101875.00;2105017;28;20056;-81
2022/12/03 05:31:13;;;;;;;19.60;13.00;;;;;;;14.81;100.00;101874.16;2086230;28;20046;-80
2022/12/03 05:32:37;;;;;;;20.83;14.27;;;;;;;14.82;100.00;101876.88;2083363;28;20184;-80
2022/12/03 05:33:59;;;;;;;19.25;14.63;;;;;;;14.83;100.00;101876.00;2093981;28;20097;-80
2022/12/03 05:35:21;;;;;;;18.88;12.32;;;;;;;14.86;100.00;101877.78;2100123;28;20040;-80
2022/12/03 05:36:43;;;;;;;19.25;16.00;;;;;;;14.88;100.00;101879.63;2102454;28;20036;-80
2022/12/03 05:38:06;;;;;;;19.85;14.38;;;;;;;14.91;100.00;101877.00;2094398;28;20063;-80
2022/12/03 05:39:28;;;;;;;16.52;13.35;;;;;;;14.92;100.00;101878.78;2091712;28;20045;-80
2022/12/03 05:40:51;;;;;;;21.58;16.38;;;;;;;14.92;100.00;101881.44;2096185;28;20482;-80
2022/12/03 05:43:52;;;;;;;30.67;23.63;;;;;;;14.92;100.00;101877.88;2096460;28;20052;-80
2022/12/03 05:45:14;;;;;;;24.58;19.02;;;;;;;14.94;100.00;101882.38;2085976;28;20472;-79
2022/12/03 05:46:37;;;;;;;24.60;17.50;;;;;;;14.96;100.00;101880.63;2091465;28;20032;-80
2022/12/03 05:48:01;;;;;;;25.17;16.80;;;;;;;15.01;100.00;101886.03;2086267;28;20037;-79
2022/12/03 05:49:24;;;;;;;23.42;16.38;;;;;;;15.03;100.00;101887.81;2084065;28;20053;-80
2022/12/03 05:50:47;;;;;;;23.45;16.63;;;;;;;15.04;100.00;101889.59;2095502;28;20040;-80
2022/12/03 05:52:08;;;;;;;23.02;17.05;;;;;;;15.06;100.00;101895.84;2086202;28;20053;-79
2022/12/03 05:53:31;;;;;;;25.08;17.55;;;;;;;15.06;100.00;101893.19;2095497;28;20071;-80
2022/12/03 05:54:52;;;;;;;25.67;18.52;;;;;;;15.07;100.00;101884.34;2088634;28;20099;-79
2022/12/03 05:56:15;;;;;;;25.63;17.77;;;;;;;15.08;100.00;101887.91;2083245;28;20173;-80
2022/12/03 05:57:37;;;;;;;24.33;18.08;;;;;;;15.10;100.00;101887.03;2083067;28;20076;-80
2022/12/03 05:58:59;;;;;;;31.85;19.45;;;;;;;15.14;100.00;101888.00;2087357;28;20131;-80
2022/12/03 06:00:24;;;;;;;21.45;16.80;;;;;;;15.16;100.00;101897.75;2086233;28;20037;-80
2022/12/03 06:01:47;;;;;;;24.25;16.92;;;;;;;15.18;100.00;101894.25;2091950;28;20071;-80
2022/12/03 06:03:11;;;;;;;21.48;15.80;;;;;;;15.19;100.00;101896.03;2091888;28;20121;-80
2022/12/03 06:04:33;;;;;;;25.25;16.58;;;;;;;15.19;100.00;101891.59;2094749;28;20102;-80
2022/12/03 06:05:55;;;;;;;22.38;14.68;;;;;;;15.21;100.00;101894.31;2088357;28;20562;-80
2022/12/03 06:07:17;;;;;;;22.65;13.98;;;;;;;15.25;100.00;101891.69;2096467;28;20040;-80
2022/12/03 06:08:40;;;;;;;21.92;13.52;;;;;;;15.29;100.00;101890.00;2102600;28;20075;-80
2022/12/03 06:10:01;;;;;;;18.83;13.27;;;;;;;15.34;100.00;101888.28;2090084;28;20107;-80
2022/12/03 06:11:24;;;;;;;23.38;14.30;;;;;;;15.40;100.00;101897.25;2099046;28;20052;-79
2022/12/03 06:12:46;;;;;;;18.17;12.45;;;;;;;15.46;100.00;101900.00;2094188;28;20076;-79
2022/12/03 06:14:24;;;;;;;21.02;12.27;;;;;;;15.52;100.00;101885.88;2071166;28;20049;-79
2022/12/03 06:15:47;;;;;;;20.88;12.27;;;;;;;15.57;100.00;101893.94;2104279;28;20121;-81
2022/12/03 06:17:08;;;;;;;20.77;12.43;;;;;;;15.64;100.00;101891.38;2088691;28;20056;-79
2022/12/03 06:18:33;;;;;;;20.67;12.60;;;;;;;15.72;100.00;101896.81;2083025;28;20095;-80
2022/12/03 06:19:55;;;;;;;19.20;11.50;;;;;;;15.75;100.00;101892.41;2092117;28;20110;-80
2022/12/03 06:21:18;;;;;;;16.40;11.43;;;;;;;15.80;100.00;101893.38;2100085;28;20077;-80
2022/12/03 06:22:41;;;;;;;18.80;12.32;;;;;;;15.84;100.00;101897.84;2102243;28;20415;-81
2022/12/03 06:24:03;;;;;;;19.08;11.75;;;;;;;15.88;100.00;101888.16;2102563;28;20052;-80
2022/12/03 06:25:26;;;;;;;18.80;11.60;;;;;;;15.93;100.00;101894.41;2110977;28;20086;-81
2022/12/03 06:26:47;;;;;;;17.25;12.18;;;;;;;15.97;100.00;101893.56;2104935;28;20048;-80
2022/12/03 06:28:10;;;;;;;19.08;11.45;;;;;;;15.99;100.00;101898.94;2093784;28;20045;-81
2022/12/03 06:29:31;;;;;;;19.17;12.27;;;;;;;15.99;100.00;101893.59;2099990;28;20380;-81
2022/12/03 06:30:54;;;;;;;21.52;13.65;;;;;;;16.00;100.00;101892.72;2101190;28;20048;-80
2022/12/03 06:32:15;;;;;;;22.83;17.55;;;;;;;16.02;100.00;101893.59;2091174;28;20041;-80
2022/12/03 06:33:40;;;;;;;20.10;16.85;;;;;;;16.03;100.00;101890.06;2099288;28;20377;-80
2022/12/03 06:35:02;;;;;;;19.42;15.75;;;;;;;16.05;100.00;101899.00;2092074;28;20036;-81
2022/12/03 06:36:26;;;;;;;;;;;;;;;16.02;100.00;101888.28;2093519;28;20064;-80
2022/12/03 06:37:49;;;;;;;24.38;16.50;;;;;;;16.06;100.00;101884.81;2086124;28;19921;-80
2022/12/03 06:39:10;;;;;;;19.83;14.75;;;;;;;16.10;100.00;101889.28;2083203;28;20108;-80